Time;durP1;ratioP1;P1;durP2;ratioP2;P2;SDS_P1;SDS_P2;PMS_P1;PMS_P2;Temp;Humidity;BMP_temperature;BMP_pressure;BME280_temperature;BME280_humidity;BME280_pressure;Samples;Min_cycle;Max_cycle;Signal;HPM_P1;HPM_P2
2023/12/01 00:02:25;;;;;;;6.43;4.13;;;;;;;24.90;30.39;97733.13;4976504;28;20073;-45
2023/12/01 00:04:51;;;;;;;5.72;3.72;;;;;;;24.90;30.26;97730.34;4989527;28;20025;-44
2023/12/01 00:07:16;;;;;;;5.95;3.80;;;;;;;24.91;30.46;97714.53;4994512;28;20028;-46
2023/12/01 00:09:41;;;;;;;6.13;3.85;;;;;;;24.91;30.31;97714.53;4985356;28;20106;-44
2023/12/01 00:12:07;;;;;;;6.07;3.50;;;;;;;24.90;30.50;97710.28;4989059;28;20056;-44
2023/12/01 00:14:32;;;;;;;6.03;3.80;;;;;;;24.88;30.37;97723.91;4985813;28;20049;-43
2023/12/01 00:16:58;;;;;;;5.63;3.40;;;;;;;24.91;30.32;97728.34;4986128;28;20613;-43
2023/12/01 00:19:23;;;;;;;6.00;3.60;;;;;;;24.90;30.41;97713.06;4992967;28;20042;-45
2023/12/01 00:21:48;;;;;;;6.13;3.63;;;;;;;24.89;30.44;97714.34;4992814;28;20058;-44
2023/12/01 00:24:14;;;;;;;6.20;3.80;;;;;;;24.90;30.29;97722.06;4989230;28;20483;-44
2023/12/01 00:26:39;;;;;;;5.90;3.58;;;;;;;24.92;30.26;97710.50;4984980;28;20051;-44
2023/12/01 00:29:05;;;;;;;6.18;3.40;;;;;;;24.91;30.43;97711.78;4988201;28;20023;-44
2023/12/01 00:31:30;;;;;;;5.82;3.35;;;;;;;24.87;30.40;97714.88;4990373;28;20480;-44
2023/12/01 00:33:55;;;;;;;6.03;3.78;;;;;;;24.90;30.15;97719.31;4987904;28;20022;-45
2023/12/01 00:36:21;;;;;;;5.28;3.30;;;;;;;24.92;30.45;97729.81;4992702;28;20026;-45
2023/12/01 00:38:46;;;;;;;5.10;2.83;;;;;;;24.89;30.45;97734.41;4991484;28;20053;-44
2023/12/01 00:41:11;;;;;;;6.38;3.63;;;;;;;24.90;30.47;97735.13;4992344;28;20030;-45
2023/12/01 00:43:37;;;;;;;5.32;3.20;;;;;;;24.91;30.40;97728.34;4998872;28;20037;-44
2023/12/01 00:46:04;;;;;;;5.45;3.33;;;;;;;24.89;30.39;97737.16;4995282;28;20384;-44
2023/12/01 00:48:30;;;;;;;5.68;3.22;;;;;;;24.88;30.41;97743.94;4995068;28;20025;-45
2023/12/01 00:50:56;;;;;;;4.95;2.80;;;;;;;24.87;30.38;97744.50;4989664;28;20118;-43
2023/12/01 00:53:21;;;;;;;5.57;3.42;;;;;;;24.85;30.48;97736.75;4993750;28;20109;-44
2023/12/01 00:55:46;;;;;;;5.10;2.90;;;;;;;24.85;30.45;97733.97;4993252;28;20075;-44
2023/12/01 00:58:12;;;;;;;5.57;3.30;;;;;;;24.87;30.38;97739.72;4997566;28;20027;-45
2023/12/01 01:00:37;;;;;;;5.25;3.30;;;;;;;24.85;30.38;97742.25;4994710;28;20117;-43
2023/12/01 01:03:03;;;;;;;5.50;3.30;;;;;;;24.84;30.50;97745.56;4995141;28;20022;-44
2023/12/01 01:05:28;;;;;;;5.15;3.05;;;;;;;24.84;30.59;97749.06;4987878;28;20022;-44
2023/12/01 01:07:53;;;;;;;5.30;3.00;;;;;;;24.81;30.48;97736.34;4991938;28;20645;-43
2023/12/01 01:10:19;;;;;;;5.03;3.03;;;;;;;24.83;30.39;97733.78;4993182;28;20045;-46
2023/12/01 01:12:44;;;;;;;5.25;3.10;;;;;;;24.82;30.29;97720.53;4992730;28;20030;-45
2023/12/01 01:15:09;;;;;;;5.68;3.22;;;;;;;24.81;30.43;97730.81;4990913;28;20684;-44
2023/12/01 01:17:35;;;;;;;5.13;2.80;;;;;;;24.83;30.36;97742.06;4988243;28;20459;-46
2023/12/01 01:20:00;;;;;;;5.00;2.90;;;;;;;24.84;30.52;97751.06;4996138;28;20049;-45
2023/12/01 01:22:26;;;;;;;4.95;3.03;;;;;;;24.83;30.49;97761.38;4993359;28;20101;-44
2023/12/01 01:24:51;;;;;;;5.00;2.80;;;;;;;24.83;30.49;97763.38;4992492;28;20088;-44
2023/12/01 01:27:17;;;;;;;4.57;2.55;;;;;;;24.81;30.44;97763.91;4992978;28;20471;-44
2023/12/01 01:29:43;;;;;;;5.22;2.85;;;;;;;24.80;30.41;97756.19;4987359;28;20030;-44
2023/12/01 01:32:08;;;;;;;5.10;2.72;;;;;;;24.80;30.35;97767.97;4987160;28;20159;-44
2023/12/01 01:34:34;;;;;;;5.65;2.90;;;;;;;24.79;30.31;97760.97;4995492;28;20018;-44
2023/12/01 01:36:59;;;;;;;5.18;3.00;;;;;;;24.79;30.43;97763.72;4990946;28;20022;-44
2023/12/01 01:39:24;;;;;;;4.88;2.65;;;;;;;24.78;30.44;97775.31;4992335;28;20032;-44
2023/12/01 01:41:50;;;;;;;4.97;3.05;;;;;;;24.79;30.51;97771.25;4990200;28;20038;-45
2023/12/01 01:44:15;;;;;;;5.18;2.95;;;;;;;24.79;30.37;97768.50;4993714;28;20486;-44
2023/12/01 01:46:40;;;;;;;4.80;2.80;;;;;;;24.76;30.55;97767.56;4996267;28;20034;-44
2023/12/01 01:49:06;;;;;;;5.53;3.08;;;;;;;24.78;30.57;97772.56;4994032;28;20022;-46
2023/12/01 01:51:34;;;;;;;4.85;2.97;;;;;;;24.77;30.42;97780.09;4997117;28;20033;-44
2023/12/01 01:53:59;;;;;;;5.10;2.97;;;;;;;24.77;30.44;97777.34;4988360;28;20026;-44
2023/12/01 01:56:25;;;;;;;5.20;3.10;;;;;;;24.78;30.38;97775.31;4993953;28;20030;-43
2023/12/01 01:58:51;;;;;;;4.80;2.70;;;;;;;24.79;30.33;97760.22;4976189;28;20018;-44
2023/12/01 02:01:16;;;;;;;4.95;3.00;;;;;;;24.76;30.48;97759.31;4998653;28;20032;-43
2023/12/01 02:03:42;;;;;;;4.95;2.92;;;;;;;24.76;30.38;97761.31;4997578;28;20034;-43
2023/12/01 02:06:07;;;;;;;5.43;2.90;;;;;;;24.78;30.23;97767.03;4989888;28;20026;-44
2023/12/01 02:08:35;;;;;;;4.70;2.63;;;;;;;24.75;30.40;97762.59;4993510;28;20033;-44
2023/12/01 02:11:01;;;;;;;5.40;2.90;;;;;;;24.75;30.33;97785.41;4993123;28;20037;-45
2023/12/01 02:13:28;;;;;;;15.73;2.97;;;;;;;24.75;30.26;97792.94;4995002;28;20030;-44
2023/12/01 02:15:53;;;;;;;4.70;2.60;;;;;;;24.75;30.55;97795.69;4991239;28;20461;-44
2023/12/01 02:18:30;;;;;;;4.80;2.53;;;;;;;24.75;30.33;97798.47;4987963;28;20043;-44
2023/12/01 02:20:56;;;;;;;5.05;2.90;;;;;;;24.75;30.39;97799.19;4994981;28;20114;-44
2023/12/01 02:23:21;;;;;;;4.93;2.80;;;;;;;24.75;30.43;97798.47;4991299;28;20033;-44
2023/12/01 02:25:47;;;;;;;4.82;2.72;;;;;;;24.74;30.37;97797.72;4991409;28;20027;-44
2023/12/01 02:28:13;;;;;;;5.03;2.70;;;;;;;24.74;30.45;97794.97;4985963;28;20041;-43
2023/12/01 02:30:38;;;;;;;5.25;2.80;;;;;;;24.72;30.58;97794.75;4982629;28;20428;-43
2023/12/01 02:33:04;;;;;;;4.60;2.67;;;;;;;24.74;30.51;97797.72;4992233;28;20126;-45
2023/12/01 02:35:29;;;;;;;4.75;2.63;;;;;;;24.73;30.37;97790.72;4992725;28;20417;-45
2023/12/01 02:37:58;;;;;;;5.00;2.60;;;;;;;24.75;30.30;97785.41;4992564;28;20026;-44
2023/12/01 02:40:23;;;;;;;4.68;2.60;;;;;;;24.76;30.51;97786.16;4992999;28;20398;-44
2023/12/01 02:42:50;;;;;;;4.97;2.70;;;;;;;24.77;30.26;97773.84;4984887;28;20026;-45
2023/12/01 02:45:19;;;;;;;5.05;2.63;;;;;;;24.77;30.25;97790.38;4990202;28;20117;-44
2023/12/01 02:47:50;;;;;;;4.22;2.33;;;;;;;24.77;30.20;97793.88;4978774;28;20104;-45
2023/12/01 02:50:18;;;;;;;5.00;2.72;;;;;;;24.76;30.33;97773.09;4991638;28;20022;-44
2023/12/01 02:52:44;;;;;;;4.93;2.70;;;;;;;24.75;30.31;97781.91;4988635;28;20374;-44
2023/12/01 02:55:09;;;;;;;4.97;2.60;;;;;;;24.76;30.26;97778.59;4982855;28;20021;-44
2023/12/01 02:57:41;;;;;;;5.00;2.80;;;;;;;24.76;30.29;97778.59;4986594;28;20030;-43
2023/12/01 03:00:13;;;;;;;4.75;2.78;;;;;;;24.77;30.29;97785.63;4993900;28;20628;-43
2023/12/01 03:02:42;;;;;;;4.88;2.67;;;;;;;24.74;30.17;97786.69;4995991;28;20032;-43
2023/12/01 03:05:08;;;;;;;4.50;2.35;;;;;;;24.74;30.45;97778.41;4991170;28;20029;-45
2023/12/01 03:07:34;;;;;;;4.55;2.47;;;;;;;24.75;30.31;97785.41;4983589;28;20512;-44
2023/12/01 03:10:00;;;;;;;5.35;2.65;;;;;;;24.75;30.32;97776.38;4987065;28;20455;-44
2023/12/01 03:12:25;;;;;;;5.15;2.70;;;;;;;24.74;30.42;97775.66;4989713;28;20064;-45
2023/12/01 03:14:50;;;;;;;5.10;2.72;;;;;;;24.73;30.50;97785.19;4991809;28;20648;-44
2023/12/01 03:17:16;;;;;;;4.20;2.40;;;;;;;24.75;30.44;97779.16;4994497;28;20019;-44
2023/12/01 03:19:41;;;;;;;4.70;2.60;;;;;;;24.77;30.30;97777.34;4987439;28;20041;-45
2023/12/01 03:22:06;;;;;;;4.25;2.35;;;;;;;24.76;30.48;97775.09;4988117;28;20478;-44
2023/12/01 03:24:32;;;;;;;4.85;2.72;;;;;;;24.76;30.26;97778.59;4992959;28;20038;-44
2023/12/01 03:26:57;;;;;;;4.18;2.53;;;;;;;24.75;30.40;97777.13;4993520;28;20045;-44
2023/12/01 03:29:22;;;;;;;4.80;2.60;;;;;;;24.75;30.25;97771.63;4998598;28;20030;-44
2023/12/01 03:31:49;;;;;;;4.80;2.60;;;;;;;24.75;30.33;97766.09;4988587;28;20478;-45
2023/12/01 03:34:15;;;;;;;4.40;2.38;;;;;;;24.80;30.29;97770.72;4990104;28;20568;-43
2023/12/01 03:36:40;;;;;;;4.85;2.63;;;;;;;24.77;30.51;97766.28;4992751;28;20025;-44
2023/12/01 03:39:06;;;;;;;5.28;2.85;;;;;;;24.79;30.45;97772.00;4992631;28;20385;-44
2023/12/01 03:41:32;;;;;;;4.88;2.65;;;;;;;24.82;30.36;97775.69;4993560;28;20079;-45
2023/12/01 03:43:57;;;;;;;4.70;2.60;;;;;;;24.83;30.27;97783.44;4986611;28;20492;-44
2023/12/01 03:46:45;;;;;;;4.57;2.45;;;;;;;24.83;30.46;97780.69;4987490;28;20449;-44
2023/12/01 03:49:10;;;;;;;4.63;2.50;;;;;;;24.83;30.35;97777.94;4984913;28;20058;-45
2023/12/01 03:51:36;;;;;;;4.78;2.65;;;;;;;24.86;30.51;97776.84;4988873;28;20030;-44
2023/12/01 03:54:01;;;;;;;4.35;2.15;;;;;;;24.85;30.40;97780.91;4988585;28;20031;-45
2023/12/01 03:56:27;;;;;;;4.28;2.33;;;;;;;24.89;30.34;97772.28;4983802;28;20495;-45
2023/12/01 03:58:56;;;;;;;5.07;2.70;;;;;;;24.90;30.26;97785.56;4988434;28;20448;-46
2023/12/01 04:01:26;;;;;;;4.57;2.45;;;;;;;24.93;30.33;97783.75;4991948;28;20504;-45
2023/12/01 04:03:51;;;;;;;4.20;2.20;;;;;;;24.96;30.22;97786.19;4992661;28;20022;-45
2023/12/01 04:06:17;;;;;;;4.40;2.30;;;;;;;24.99;30.37;97785.09;4992243;28;20141;-44
2023/12/01 04:08:42;;;;;;;4.50;2.40;;;;;;;24.96;30.16;97786.19;4986793;28;20037;-44
2023/12/01 04:11:07;;;;;;;4.43;2.35;;;;;;;24.91;30.36;97786.28;4989931;28;20030;-46
2023/12/01 04:13:33;;;;;;;5.38;2.63;;;;;;;24.84;30.30;97789.72;4998466;28;20030;-46
2023/12/01 04:15:58;;;;;;;4.80;2.80;;;;;;;24.82;30.13;97797.78;4992729;28;20014;-46
2023/12/01 04:18:27;;;;;;;4.60;2.70;;;;;;;24.85;30.13;97794.69;4998345;28;20042;-44
2023/12/01 04:20:53;;;;;;;5.63;2.88;;;;;;;24.84;30.05;97801.47;4991740;28;20044;-44
2023/12/01 04:23:18;;;;;;;5.00;2.95;;;;;;;24.81;30.13;97801.81;4991716;28;20014;-44
2023/12/01 04:25:47;;;;;;;5.43;2.70;;;;;;;24.82;30.15;97797.78;4993119;28;20424;-44
2023/12/01 04:28:13;;;;;;;5.30;2.95;;;;;;;24.84;30.24;97793.22;4994997;28;20036;-44
2023/12/01 04:30:38;;;;;;;6.70;2.70;;;;;;;24.90;30.07;97785.56;4997521;28;20413;-44
2023/12/01 04:33:04;;;;;;;5.40;2.92;;;;;;;24.89;30.32;97764.00;4991615;28;20075;-45
2023/12/01 04:35:30;;;;;;;5.25;2.67;;;;;;;24.88;30.23;97757.75;4989501;28;20018;-44
2023/12/01 04:37:56;;;;;;;4.93;2.70;;;;;;;24.90;30.26;97759.97;4995626;28;20481;-45
2023/12/01 04:40:22;;;;;;;4.90;2.67;;;;;;;24.93;30.23;97769.94;4994188;28;20022;-46
2023/12/01 04:42:49;;;;;;;5.72;2.65;;;;;;;24.94;30.11;97772.19;4990761;28;20034;-45
2023/12/01 04:45:16;;;;;;;6.22;2.75;;;;;;;24.94;30.31;97777.72;4989529;28;20378;-45
2023/12/01 04:47:41;;;;;;;17.27;2.60;;;;;;;24.95;30.32;97790.22;4992153;28;20077;-44
2023/12/01 04:50:12;;;;;;;5.35;2.60;;;;;;;24.98;30.19;97788.41;4993277;28;20165;-46
2023/12/01 04:52:42;;;;;;;5.35;2.45;;;;;;;24.99;30.31;97782.34;4999580;28;20220;-44
2023/12/01 04:55:10;;;;;;;4.90;2.42;;;;;;;25.01;30.15;97790.09;4992612;28;20430;-44
2023/12/01 04:57:35;;;;;;;4.85;2.60;;;;;;;25.02;30.24;97777.75;4988028;28;20026;-44
2023/12/01 05:00:01;;;;;;;4.70;2.50;;;;;;;25.01;30.30;97782.53;4989616;28;20052;-45
2023/12/01 05:02:26;;;;;;;5.05;2.58;;;;;;;25.02;30.15;97800.59;5003476;28;20539;-44
2023/12/01 05:04:51;;;;;;;4.68;2.50;;;;;;;25.06;30.06;97795.47;4996305;28;20030;-44
2023/12/01 05:07:16;;;;;;;4.97;2.60;;;;;;;25.06;30.27;97805.78;4990623;28;20032;-44
2023/12/01 05:09:42;;;;;;;4.95;2.33;;;;;;;25.10;30.14;97810.97;4987350;28;20030;-44
2023/12/01 05:12:07;;;;;;;4.65;2.42;;;;;;;25.08;30.12;97810.75;4988609;28;20533;-44
2023/12/01 05:14:33;;;;;;;8.57;2.65;;;;;;;25.09;30.22;97806.72;4994942;28;20074;-44
2023/12/01 05:16:58;;;;;;;4.32;2.30;;;;;;;25.08;30.31;97810.75;5000658;28;20083;-45
2023/12/01 05:19:23;;;;;;;4.82;2.38;;;;;;;25.06;30.17;97800.25;4992156;28;20028;-44
2023/12/01 05:21:49;;;;;;;4.95;2.42;;;;;;;25.06;30.33;97805.78;4985470;28;20372;-44
2023/12/01 05:24:14;;;;;;;5.72;2.45;;;;;;;25.11;30.30;97818.72;4987962;28;20026;-42
2023/12/01 05:26:40;;;;;;;4.75;2.50;;;;;;;25.14;30.37;97827.94;4986527;28;20038;-41
2023/12/01 05:29:12;;;;;;;4.45;2.20;;;;;;;25.15;30.56;97838.44;4996348;28;20058;-41
2023/12/01 05:31:38;;;;;;;6.70;2.40;;;;;;;25.14;30.48;97833.47;4994811;28;20477;-41
2023/12/01 05:34:05;;;;;;;5.75;2.35;;;;;;;25.13;30.98;97812.66;4987957;28;20030;-45
2023/12/01 05:36:30;;;;;;;6.75;2.30;;;;;;;25.17;30.92;97800.00;4987925;28;20026;-41
2023/12/01 05:38:57;;;;;;;6.95;2.53;;;;;;;25.15;30.97;97802.56;4987159;28;20030;-44
2023/12/01 05:41:22;;;;;;;5.82;2.58;;;;;;;25.15;31.06;97810.09;4987705;28;20085;-43
2023/12/01 05:43:47;;;;;;;7.07;2.28;;;;;;;25.16;31.22;97812.31;4999388;28;20434;-44
2023/12/01 05:46:13;;;;;;;5.63;2.30;;;;;;;25.17;31.11;97818.59;4992172;28;20026;-43
2023/12/01 05:48:38;;;;;;;6.18;2.20;;;;;;;25.18;31.29;97818.03;4991289;28;20040;-44
2023/12/01 05:51:04;;;;;;;5.30;2.15;;;;;;;25.19;31.36;97816.75;4990227;28;20030;-42
2023/12/01 05:53:34;;;;;;;5.20;2.30;;;;;;;25.18;31.25;97833.88;4990537;28;20552;-43
2023/12/01 05:56:00;;;;;;;7.72;2.30;;;;;;;25.19;31.31;97829.81;4993975;28;20087;-42
2023/12/01 05:58:25;;;;;;;4.70;2.15;;;;;;;25.19;31.53;97849.88;4993298;28;20026;-41
2023/12/01 06:00:52;;;;;;;5.15;2.30;;;;;;;25.22;31.23;97856.34;4986738;28;20052;-44
2023/12/01 06:03:19;;;;;;;5.95;2.20;;;;;;;25.23;31.16;97858.56;4989987;28;20018;-42
2023/12/01 06:05:46;;;;;;;5.60;2.35;;;;;;;25.25;31.19;97863.56;4992395;28;20390;-43
2023/12/01 06:08:11;;;;;;;5.90;2.40;;;;;;;25.26;31.10;97854.00;4989116;28;20176;-43
2023/12/01 06:10:37;;;;;;;4.68;2.15;;;;;;;25.28;31.12;97851.44;4990799;28;20572;-43
2023/12/01 06:13:03;;;;;;;6.00;2.13;;;;;;;25.25;31.15;97844.22;4988786;28;20042;-38
2023/12/01 06:15:31;;;;;;;5.63;2.30;;;;;;;25.23;30.83;97855.06;4990670;28;20359;-39
2023/12/01 06:17:57;;;;;;;5.68;2.35;;;;;;;25.23;30.90;97869.63;4995071;28;20033;-39
2023/12/01 06:20:23;;;;;;;6.15;2.40;;;;;;;25.23;30.53;97871.63;4993352;28;20037;-44
2023/12/01 06:22:53;;;;;;;5.00;2.45;;;;;;;25.19;30.50;97863.69;4995741;28;20030;-42
2023/12/01 06:25:27;;;;;;;4.45;2.25;;;;;;;25.20;30.41;97875.47;4990278;28;20026;-42
2023/12/01 06:27:52;;;;;;;5.32;2.70;;;;;;;25.20;30.46;97881.00;4987887;28;20026;-45
2023/12/01 06:30:18;;;;;;;5.03;2.80;;;;;;;25.19;30.15;97874.72;4992849;28;20378;-41
2023/12/01 06:32:46;;;;;;;4.72;2.60;;;;;;;25.18;30.18;97867.00;4988916;28;20110;-41
2023/12/01 06:35:15;;;;;;;5.00;2.70;;;;;;;25.20;30.01;97869.94;4984604;28;20027;-41
2023/12/01 06:37:41;;;;;;;4.95;2.70;;;;;;;25.17;30.42;97871.03;4988601;28;20026;-40
2023/12/01 06:40:15;;;;;;;4.97;2.60;;;;;;;25.17;30.41;97885.59;4988768;28;20568;-46
2023/12/01 06:42:47;;;;;;;5.25;2.60;;;;;;;25.16;30.08;97889.63;4995091;28;20034;-44
2023/12/01 06:45:17;;;;;;;6.13;2.58;;;;;;;25.13;30.21;97882.41;4988434;28;20022;-44
2023/12/01 06:47:46;;;;;;;7.93;2.90;;;;;;;25.12;30.23;97885.72;4989951;28;20058;-46
2023/12/01 06:50:11;;;;;;;7.45;3.03;;;;;;;25.12;30.16;97885.72;4984106;28;20031;-45
2023/12/01 06:52:46;;;;;;;5.47;2.90;;;;;;;25.09;30.17;97878.50;4986755;28;20081;-41
2023/12/01 06:55:11;;;;;;;6.25;3.00;;;;;;;25.17;30.35;97880.06;4990696;28;20033;-42
2023/12/01 06:57:40;;;;;;;8.38;2.80;;;;;;;25.16;30.38;97877.84;4997146;28;20057;-41
2023/12/01 07:00:09;;;;;;;5.80;2.95;;;;;;;25.10;30.33;97874.47;4993768;28;20034;-46
2023/12/01 07:02:38;;;;;;;5.47;3.30;;;;;;;25.09;29.89;97876.47;5005237;28;20037;-47
2023/12/01 07:05:05;;;;;;;5.28;3.10;;;;;;;25.16;30.06;97883.38;4987680;28;20421;-40
2023/12/01 07:07:30;;;;;;;7.00;3.20;;;;;;;25.13;30.26;97892.72;4990428;28;20611;-40
2023/12/01 07:09:56;;;;;;;7.65;3.83;;;;;;;25.13;30.07;97893.47;4990106;28;20041;-41
2023/12/01 07:12:22;;;;;;;6.72;3.58;;;;;;;25.13;29.88;97881.69;4985336;28;20401;-41
2023/12/01 07:14:48;;;;;;;11.32;3.47;;;;;;;25.09;30.18;97882.00;4987293;28;20018;-40
2023/12/01 07:17:14;;;;;;;6.88;3.22;;;;;;;25.05;29.84;97887.09;4989405;28;20116;-41
2023/12/01 07:19:39;;;;;;;6.70;3.47;;;;;;;25.03;30.05;97895.91;4992954;28;20105;-43
2023/12/01 07:22:04;;;;;;;6.60;3.72;;;;;;;25.00;29.84;97905.28;4988861;28;20029;-40
2023/12/01 07:24:30;;;;;;;5.20;3.05;;;;;;;25.00;30.04;97902.50;4989008;28;20023;-40
2023/12/01 07:26:55;;;;;;;5.53;3.30;;;;;;;24.98;29.94;97905.06;4988613;28;20091;-42
2023/12/01 07:29:20;;;;;;;5.65;3.35;;;;;;;24.96;29.98;97915.91;4988383;28;20391;-40
2023/12/01 07:31:46;;;;;;;5.80;3.00;;;;;;;24.94;29.92;97915.72;4992599;28;20030;-44
2023/12/01 07:34:11;;;;;;;5.20;3.25;;;;;;;24.93;29.91;97921.72;4991010;28;20042;-44
2023/12/01 07:36:37;;;;;;;4.93;3.00;;;;;;;24.91;29.64;97921.53;4989005;28;20363;-40
2023/12/01 07:39:03;;;;;;;5.10;3.10;;;;;;;24.90;29.67;97912.50;4988100;28;20026;-40
2023/12/01 07:41:28;;;;;;;6.05;3.08;;;;;;;24.89;29.70;97908.25;4987300;28;20032;-43
2023/12/01 07:43:55;;;;;;;5.00;2.80;;;;;;;24.86;29.67;97903.78;5005234;28;20030;-42
2023/12/01 07:46:20;;;;;;;4.80;3.00;;;;;;;24.85;29.70;97896.78;4999104;28;20019;-41
2023/12/01 07:48:46;;;;;;;5.78;2.88;;;;;;;24.83;29.66;97910.38;4996399;28;20114;-39
2023/12/01 07:51:11;;;;;;;5.15;2.78;;;;;;;24.84;29.80;97928.41;4994459;28;20477;-39
2023/12/01 07:53:37;;;;;;;4.85;2.90;;;;;;;24.82;29.58;97933.72;4989036;28;20397;-40
2023/12/01 07:56:02;;;;;;;5.40;3.08;;;;;;;24.75;29.66;97926.13;4992049;28;20019;-42
2023/12/01 07:58:28;;;;;;;4.78;3.00;;;;;;;24.76;29.76;97929.63;4994642;28;20450;-39
2023/12/01 08:00:53;;;;;;;4.95;2.90;;;;;;;24.75;29.86;97933.66;4996140;28;20640;-39
2023/12/01 08:03:19;;;;;;;5.35;3.00;;;;;;;24.78;29.65;97918.78;4990863;28;20083;-42
2023/12/01 08:05:44;;;;;;;5.60;3.20;;;;;;;24.74;29.73;97935.66;4991120;28;20388;-39
2023/12/01 08:08:09;;;;;;;5.35;3.00;;;;;;;24.74;29.73;97930.16;4989461;28;20015;-42
2023/12/01 08:10:35;;;;;;;6.15;2.95;;;;;;;24.77;29.76;97931.09;4989852;28;20026;-41
2023/12/01 08:13:00;;;;;;;4.95;3.00;;;;;;;24.77;29.76;97917.31;4999257;28;20018;-39
2023/12/01 08:15:26;;;;;;;14.25;3.25;;;;;;;24.76;29.69;97908.28;4992895;28;20374;-43
2023/12/01 08:17:51;;;;;;;5.90;2.90;;;;;;;24.76;29.42;97916.56;4989382;28;20029;-42
2023/12/01 08:20:16;;;;;;;5.65;3.03;;;;;;;24.77;29.44;97912.53;4991339;28;20496;-39
2023/12/01 08:22:46;;;;;;;6.60;3.00;;;;;;;24.80;29.56;97914.19;4992118;28;20058;-41
2023/12/01 08:25:12;;;;;;;6.15;3.00;;;;;;;24.75;29.70;97912.31;4999231;28;20029;-43
2023/12/01 08:27:39;;;;;;;5.22;2.72;;;;;;;24.73;29.64;97899.06;4993249;28;20372;-40
2023/12/01 08:30:05;;;;;;;5.90;2.90;;;;;;;24.73;29.37;97912.09;4989312;28;20110;-40
2023/12/01 08:32:30;;;;;;;5.68;3.10;;;;;;;24.74;29.46;97908.06;4992583;28;20030;-40
2023/12/01 08:34:56;;;;;;;6.65;2.72;;;;;;;24.73;29.49;97918.38;4994102;28;20021;-44
2023/12/01 08:37:21;;;;;;;6.30;2.90;;;;;;;24.72;29.42;97910.63;4991233;28;20026;-41
2023/12/01 08:39:46;;;;;;;6.22;3.10;;;;;;;24.73;29.55;97903.84;4995069;28;20033;-40
2023/12/01 08:42:12;;;;;;;6.38;2.83;;;;;;;24.71;29.63;97906.38;4993509;28;20037;-42
2023/12/01 08:44:37;;;;;;;11.20;4.03;;;;;;;24.74;29.63;97916.34;4987355;28;20096;-39
2023/12/01 08:47:02;;;;;;;8.82;3.45;;;;;;;24.75;29.66;97928.88;4991682;28;20030;-41
2023/12/01 08:49:29;;;;;;;7.93;3.63;;;;;;;24.77;29.80;97923.56;4996419;28;20034;-41
2023/12/01 08:51:55;;;;;;;6.35;3.33;;;;;;;24.67;30.29;97917.00;4993382;28;20030;-42
2023/12/01 08:54:22;;;;;;;8.05;3.40;;;;;;;24.74;30.17;97910.84;4988927;28;20031;-43
2023/12/01 08:56:47;;;;;;;7.75;3.40;;;;;;;24.79;30.20;97920.25;4984515;28;20069;-46
2023/12/01 08:59:13;;;;;;;7.28;3.63;;;;;;;24.81;30.12;97912.19;4993174;28;20063;-45
2023/12/01 09:01:40;;;;;;;9.23;3.72;;;;;;;24.84;30.14;97928.41;4992614;28;20030;-43
2023/12/01 09:04:05;;;;;;;;;;;;;;;25.00;30.12;97932.88;4995947;28;20105;-45
2023/12/01 09:06:31;;;;;;;7.57;3.55;;;;;;;24.99;30.29;97920.34;4996317;28;20464;-44
2023/12/01 09:08:56;;;;;;;6.85;3.90;;;;;;;24.96;30.26;97915.91;4985341;28;20485;-42
2023/12/01 09:11:21;;;;;;;7.50;3.80;;;;;;;24.94;30.16;97920.44;4993779;28;20048;-41
2023/12/01 09:13:47;;;;;;;10.25;3.60;;;;;;;24.95;30.14;97919.22;4993358;28;20023;-42
2023/12/01 09:16:12;;;;;;;7.90;3.75;;;;;;;24.95;30.13;97917.19;4991529;28;20022;-42
2023/12/01 09:18:38;;;;;;;7.93;3.70;;;;;;;24.96;30.08;97923.44;4988971;28;20433;-42
2023/12/01 09:21:03;;;;;;;8.70;4.07;;;;;;;24.98;29.92;97932.66;4988472;28;20030;-45
2023/12/01 09:23:28;;;;;;;6.13;3.53;;;;;;;24.99;29.89;97939.66;4993721;28;20021;-42
2023/12/01 09:25:55;;;;;;;6.85;3.85;;;;;;;24.98;30.09;97938.19;4996860;28;20030;-44
2023/12/01 09:28:20;;;;;;;6.10;3.80;;;;;;;25.00;30.02;97940.41;4991807;28;20018;-42
2023/12/01 09:30:45;;;;;;;5.82;3.35;;;;;;;25.06;29.90;97936.25;4994266;28;20026;-40
2023/12/01 09:33:11;;;;;;;7.03;3.55;;;;;;;25.09;30.01;97934.44;4989274;28;20664;-40
2023/12/01 09:35:37;;;;;;;5.93;3.50;;;;;;;25.08;29.70;97926.69;4989124;28;20401;-40
2023/12/01 09:38:03;;;;;;;7.15;3.45;;;;;;;25.08;29.70;97921.94;4995772;28;20103;-41
2023/12/01 09:40:28;;;;;;;6.13;3.50;;;;;;;25.10;29.79;97927.66;4991267;28;20029;-39
2023/12/01 09:42:53;;;;;;;5.82;3.63;;;;;;;25.14;29.86;97930.84;4989492;28;20034;-39
2023/12/01 09:45:22;;;;;;;6.68;3.47;;;;;;;25.13;30.04;97926.59;4986611;28;20030;-39
2023/12/01 09:47:57;;;;;;;8.48;3.38;;;;;;;25.15;29.93;97942.63;4985775;28;20034;-39
2023/12/01 09:50:22;;;;;;;7.57;3.60;;;;;;;25.15;30.00;97946.13;4988781;28;20034;-41
2023/12/01 09:52:48;;;;;;;6.05;3.60;;;;;;;25.13;30.01;97939.66;4988680;28;20034;-40
2023/12/01 09:55:13;;;;;;;6.55;3.50;;;;;;;25.17;29.94;97931.78;4991202;28;20022;-40
2023/12/01 09:57:39;;;;;;;7.25;3.60;;;;;;;25.19;29.95;97918.91;4988241;28;20029;-40
2023/12/01 10:00:10;;;;;;;6.40;3.63;;;;;;;25.22;30.04;97917.84;4988400;28;20017;-42
2023/12/01 10:02:36;;;;;;;6.93;3.40;;;;;;;25.25;30.35;97927.06;4992816;28;20058;-45
2023/12/01 10:05:03;;;;;;;6.18;3.50;;;;;;;25.23;30.34;97944.16;4992206;28;20258;-41
2023/12/01 10:07:29;;;;;;;9.73;4.00;;;;;;;25.25;30.15;97943.63;4990953;28;20036;-44
2023/12/01 10:09:55;;;;;;;6.25;3.60;;;;;;;25.23;29.95;97940.66;4987509;28;20022;-40
2023/12/01 10:12:20;;;;;;;6.45;3.75;;;;;;;25.25;30.02;97935.34;4987958;28;20038;-40
2023/12/01 10:14:45;;;;;;;6.47;3.78;;;;;;;25.27;30.25;97913.47;4992452;28;20026;-41
2023/12/01 10:17:12;;;;;;;5.88;3.75;;;;;;;25.31;30.18;97922.16;4991810;28;20026;-41
2023/12/01 10:19:47;;;;;;;7.43;3.57;;;;;;;25.32;30.23;97926.41;4992133;28;20390;-44
2023/12/01 10:22:13;;;;;;;5.80;3.55;;;;;;;25.29;30.49;97931.00;4988447;28;20027;-39
2023/12/01 10:24:38;;;;;;;7.00;3.60;;;;;;;25.33;30.42;97911.34;4986985;28;20496;-41
2023/12/01 10:27:05;;;;;;;8.73;3.58;;;;;;;25.35;30.33;97917.81;4994034;28;20026;-42
2023/12/01 10:29:34;;;;;;;7.20;3.63;;;;;;;25.35;30.33;97917.81;4996111;28;20018;-51
2023/12/01 10:32:00;;;;;;;8.65;3.85;;;;;;;25.35;30.27;97925.34;4989288;28;20101;-39
2023/12/01 10:34:25;;;;;;;5.45;3.38;;;;;;;25.36;30.42;97918.53;4987179;28;20022;-40
2023/12/01 10:36:52;;;;;;;7.13;3.58;;;;;;;25.36;30.16;97899.22;4988769;28;20030;-40
2023/12/01 10:39:17;;;;;;;6.75;3.78;;;;;;;25.34;30.18;97887.97;4987480;28;20559;-40
2023/12/01 10:41:44;;;;;;;6.55;3.45;;;;;;;25.35;30.15;97886.69;4990565;28;20029;-41
2023/12/01 10:44:12;;;;;;;5.65;3.15;;;;;;;25.36;30.21;97882.66;4993637;28;20511;-40
2023/12/01 10:46:37;;;;;;;6.57;3.40;;;;;;;25.38;30.04;97883.56;4969131;28;20034;-41
2023/12/01 10:49:03;;;;;;;5.70;3.50;;;;;;;25.37;29.97;97884.88;4982639;28;20023;-42
2023/12/01 10:51:29;;;;;;;5.15;3.20;;;;;;;25.38;29.90;97891.09;4992984;28;20108;-42
2023/12/01 10:53:54;;;;;;;7.07;3.67;;;;;;;25.38;29.97;97902.16;4988885;28;20030;-40
2023/12/01 10:56:19;;;;;;;6.50;3.88;;;;;;;25.36;30.05;97894.44;4977728;28;20032;-40
2023/12/01 10:58:45;;;;;;;5.63;3.55;;;;;;;25.39;30.03;97895.34;4988028;28;20029;-41
2023/12/01 11:01:12;;;;;;;6.20;3.45;;;;;;;25.39;29.91;97896.09;4988940;28;20014;-43
2023/12/01 11:03:37;;;;;;;5.60;3.63;;;;;;;25.37;30.12;97889.66;4993867;28;20030;-41
2023/12/01 11:06:07;;;;;;;6.00;3.60;;;;;;;25.39;29.90;97890.56;5000263;28;20371;-41
2023/12/01 11:09:01;;;;;;;7.35;5.13;;;;;;;25.53;29.65;97879.47;4985271;28;20045;-45
2023/12/01 11:11:42;;;;;;;9.02;6.68;;;;;;;25.48;29.88;97870.03;4983029;28;20034;-46
2023/12/01 11:14:17;;;;;;;10.55;7.93;;;;;;;25.48;30.08;97861.75;4981410;28;20037;-47
2023/12/01 11:16:42;;;;;;;13.18;9.90;;;;;;;25.51;30.10;97865.47;4980809;28;20026;-44
2023/12/01 11:19:11;;;;;;;16.50;13.27;;;;;;;25.48;30.04;97872.81;4984466;28;20732;-44
2023/12/01 11:21:40;;;;;;;16.42;13.50;;;;;;;25.46;29.85;97875.34;4983828;28;20084;-44
2023/12/01 11:24:31;;;;;;;17.13;13.52;;;;;;;25.46;30.12;97872.59;4997310;28;20030;-43
2023/12/01 11:27:03;;;;;;;18.13;14.20;;;;;;;25.48;30.14;97863.78;4982466;28;20038;-40
2023/12/01 11:29:30;;;;;;;18.63;15.02;;;;;;;25.46;30.29;97864.31;4985560;28;20609;-42
2023/12/01 11:31:59;;;;;;;17.35;13.70;;;;;;;25.47;30.24;97868.56;4987063;28;20108;-42